Time;durP1;ratioP1;P1;durP2;ratioP2;P2;SDS_P1;SDS_P2;PMS_P1;PMS_P2;Temp;Humidity;BMP_temperature;BMP_pressure;BME280_temperature;BME280_humidity;BME280_pressure;Samples;Min_cycle;Max_cycle;Signal;HPM_P1;HPM_P2
2021/06/01 00:01:15;;;;;;;2.30;2.10;;;16.90;77.40;;;;;;5040272;28;20468;-73
2021/06/01 00:03:41;;;;;;;3.00;2.70;;;17.00;77.70;;;;;;5010065;28;20221;-73
2021/06/01 00:06:07;;;;;;;3.87;2.80;;;16.90;77.70;;;;;;5043170;28;20475;-72
2021/06/01 00:08:33;;;;;;;2.50;2.30;;;16.80;77.80;;;;;;5010416;28;20228;-73
2021/06/01 00:10:58;;;;;;;3.13;2.73;;;16.70;77.70;;;;;;5010378;28;20655;-73
2021/06/01 00:13:24;;;;;;;3.10;2.10;;;16.60;77.90;;;;;;5009271;28;20839;-73
2021/06/01 00:15:50;;;;;;;3.87;2.90;;;16.40;77.90;;;;;;5025819;28;20241;-73
2021/06/01 00:18:16;;;;;;;5.07;3.37;;;16.50;78.20;;;;;;5038024;28;20267;-73
2021/06/01 00:20:41;;;;;;;2.30;2.20;;;16.40;77.90;;;;;;5026392;28;20229;-73
2021/06/01 00:23:07;;;;;;;2.70;2.20;;;16.40;78.20;;;;;;5004665;28;20238;-72
2021/06/01 00:25:33;;;;;;;2.90;2.70;;;16.40;78.00;;;;;;5054658;28;20731;-73
2021/06/01 00:27:58;;;;;;;2.60;2.40;;;16.40;78.40;;;;;;5042659;28;20237;-73
2021/06/01 00:30:24;;;;;;;2.80;2.60;;;16.40;78.10;;;;;;5025891;28;20225;-73
2021/06/01 00:32:50;;;;;;;3.07;2.30;;;16.40;78.40;;;;;;5025901;28;20232;-73
2021/06/01 00:35:16;;;;;;;2.90;2.30;;;16.30;78.50;;;;;;5025577;28;20225;-73
2021/06/01 00:37:42;;;;;;;3.20;2.30;;;16.30;78.60;;;;;;5040867;28;20252;-73
2021/06/01 00:40:08;;;;;;;2.90;2.60;;;16.30;78.50;;;;;;5024798;28;20895;-73
2021/06/01 00:42:34;;;;;;;3.23;2.93;;;16.30;78.40;;;;;;5025888;28;20223;-73
2021/06/01 00:45:02;;;;;;;3.20;3.00;;;16.30;78.70;;;;;;5009938;28;20550;-73
2021/06/01 00:47:28;;;;;;;3.20;2.67;;;16.00;78.80;;;;;;5005541;28;20286;-73
2021/06/01 00:49:54;;;;;;;4.60;2.53;;;15.90;79.30;;;;;;5042150;28;20480;-73
2021/06/01 00:52:19;;;;;;;3.30;2.97;;;15.90;79.50;;;;;;5024672;28;20217;-73
2021/06/01 00:54:45;;;;;;;2.53;2.30;;;16.00;79.50;;;;;;5041437;28;20229;-73
2021/06/01 00:57:11;;;;;;;4.23;2.83;;;16.00;79.40;;;;;;5040736;28;20221;-73
2021/06/01 00:59:36;;;;;;;4.30;2.63;;;16.10;79.60;;;;;;5025334;28;20683;-73
2021/06/01 01:02:05;;;;;;;2.37;2.17;;;16.00;79.50;;;;;;5024241;28;20209;-73
2021/06/01 01:04:34;;;;;;;3.60;1.90;;;16.00;79.60;;;;;;5008243;28;20228;-73
2021/06/01 01:07:13;;;;;;;3.10;2.50;;;16.00;79.60;;;;;;5010709;28;20467;-73
2021/06/01 01:09:42;;;;;;;2.17;1.97;;;15.90;80.80;;;;;;5010108;28;20459;-73
2021/06/01 01:12:30;;;;;;;2.43;2.23;;;15.90;79.90;;;;;;5025565;28;20456;-73
2021/06/01 01:14:59;;;;;;;3.50;2.27;;;15.80;80.10;;;;;;5010351;28;20476;-73
2021/06/01 01:17:44;;;;;;;2.87;2.63;;;15.80;80.10;;;;;;5008870;28;20440;-73
2021/06/01 01:20:31;;;;;;;3.20;2.40;;;15.80;80.00;;;;;;5025071;28;20967;-72
2021/06/01 01:23:00;;;;;;;7.80;3.00;;;15.60;80.50;;;;;;5007293;28;21066;-73
2021/06/01 01:25:36;;;;;;;2.63;2.43;;;15.50;80.50;;;;;;5008445;28;20467;-73
2021/06/01 01:28:27;;;;;;;3.27;2.53;;;15.60;80.50;;;;;;5016012;28;20450;-73
2021/06/01 01:30:56;;;;;;;3.63;2.63;;;15.50;80.90;;;;;;5047498;28;20893;-73
2021/06/01 01:33:30;;;;;;;2.70;2.50;;;15.40;81.10;;;;;;5018981;28;20447;-73
2021/06/01 01:36:00;;;;;;;2.50;2.30;;;15.40;81.10;;;;;;5044984;28;20495;-73
2021/06/01 01:38:27;;;;;;;3.60;3.10;;;15.50;81.50;;;;;;5061333;28;20463;-73
2021/06/01 01:40:57;;;;;;;4.07;2.53;;;15.40;81.20;;;;;;5029091;28;20979;-73
2021/06/01 01:43:26;;;;;;;3.53;3.27;;;15.30;81.60;;;;;;5044704;28;20986;-73
2021/06/01 01:46:01;;;;;;;4.30;3.17;;;15.10;81.80;;;;;;5026244;28;20543;-73
2021/06/01 01:51:18;;;;;;;2.73;2.53;;;15.20;81.70;;;;;;5042349;28;21207;-73
2021/06/01 01:53:52;;;;;;;3.17;2.90;;;15.20;81.80;;;;;;5044409;28;20456;-73
2021/06/01 01:56:20;;;;;;;4.67;2.80;;;15.10;82.00;;;;;;5028279;28;20478;-73
2021/06/01 01:58:50;;;;;;;2.27;2.13;;;15.20;82.20;;;;;;5060234;28;20474;-73
2021/06/01 02:01:17;;;;;;;2.53;2.17;;;15.20;82.10;;;;;;5077753;28;20463;-73
2021/06/01 02:03:43;;;;;;;3.73;2.80;;;15.20;82.00;;;;;;5028385;28;20878;-73
2021/06/01 02:06:10;;;;;;;2.93;2.63;;;15.20;82.10;;;;;;5028208;28;20467;-73
2021/06/01 02:08:40;;;;;;;2.93;2.63;;;15.10;82.40;;;;;;5045440;28;20546;-73
2021/06/01 02:11:07;;;;;;;6.10;3.03;;;15.10;82.40;;;;;;5046157;28;20455;-73
2021/06/01 02:13:42;;;;;;;4.33;2.80;;;15.10;82.20;;;;;;5064253;28;20529;-73
2021/06/01 02:16:07;;;;;;;2.60;2.40;;;15.00;82.60;;;;;;5064940;28;20478;-73
2021/06/01 02:18:33;;;;;;;2.63;2.43;;;14.90;82.70;;;;;;5031369;28;20447;-73
2021/06/01 02:21:00;;;;;;;3.20;2.90;;;14.90;82.70;;;;;;5048437;28;20715;-73
2021/06/01 02:23:48;;;;;;;2.93;2.63;;;14.90;83.10;;;;;;5063850;28;20700;-73
2021/06/01 02:26:29;;;;;;;2.00;1.90;;;14.80;82.90;;;;;;5031562;28;20550;-73
2021/06/01 02:29:02;;;;;;;2.57;2.40;;;14.90;83.20;;;;;;5048123;28;20463;-73
2021/06/01 02:31:33;;;;;;;4.70;2.70;;;14.90;83.20;;;;;;5064735;28;20467;-72
2021/06/01 02:34:01;;;;;;;3.17;2.87;;;14.80;83.40;;;;;;5048338;28;20926;-73
2021/06/01 02:36:29;;;;;;;3.30;2.67;;;14.90;83.30;;;;;;5046685;28;20494;-73
2021/06/01 02:38:58;;;;;;;3.33;2.40;;;14.80;83.40;;;;;;5080696;28;20533;-73
2021/06/01 02:41:24;;;;;;;2.43;2.30;;;14.80;83.50;;;;;;5030184;28;20546;-73
2021/06/01 02:43:51;;;;;;;3.33;2.90;;;14.80;83.40;;;;;;5047016;28;20490;-73
2021/06/01 02:46:18;;;;;;;2.53;2.23;;;14.80;83.50;;;;;;5026384;28;20464;-73
2021/06/01 02:48:45;;;;;;;3.07;2.77;;;14.80;83.40;;;;;;5029670;28;20546;-72
2021/06/01 02:51:15;;;;;;;5.20;2.50;;;14.80;83.50;;;;;;5064418;28;20459;-72
2021/06/01 02:53:47;;;;;;;3.37;3.07;;;14.70;83.30;;;;;;5047817;28;20459;-73
2021/06/01 02:56:15;;;;;;;4.27;2.70;;;14.70;83.80;;;;;;5063605;28;20475;-72
2021/06/01 02:58:45;;;;;;;3.03;2.60;;;14.70;83.60;;;;;;5027735;28;20465;-73
2021/06/01 03:01:19;;;;;;;2.83;2.50;;;14.60;83.50;;;;;;5048057;28;20455;-72
2021/06/01 03:03:53;;;;;;;3.60;2.30;;;14.70;83.70;;;;;;5047278;28;20538;-73
2021/06/01 03:06:26;;;;;;;3.03;2.40;;;14.60;83.50;;;;;;5031324;28;20465;-73
2021/06/01 03:08:51;;;;;;;2.50;2.30;;;14.60;83.70;;;;;;5047553;28;20547;-73
2021/06/01 03:11:20;;;;;;;2.47;2.27;;;14.60;83.70;;;;;;5046747;28;20535;-73
2021/06/01 03:13:47;;;;;;;4.43;2.53;;;14.60;83.60;;;;;;5063802;28;20251;-73
2021/06/01 03:16:25;;;;;;;3.67;2.77;;;14.60;83.80;;;;;;5029799;28;20494;-72
2021/06/01 03:18:51;;;;;;;3.20;2.90;;;14.60;83.80;;;;;;5047098;28;20463;-73
2021/06/01 03:21:17;;;;;;;3.03;2.40;;;14.50;83.80;;;;;;5047134;28;20454;-72
2021/06/01 03:23:43;;;;;;;2.67;2.47;;;14.50;83.80;;;;;;5059867;28;20299;-73
2021/06/01 03:26:09;;;;;;;3.37;3.00;;;14.50;83.80;;;;;;5047013;28;20248;-73
2021/06/01 03:28:35;;;;;;;3.27;2.97;;;14.50;84.10;;;;;;5030606;28;21001;-72
2021/06/01 03:31:01;;;;;;;2.97;2.47;;;14.40;83.90;;;;;;5044834;28;20463;-73
2021/06/01 03:33:30;;;;;;;3.00;2.80;;;14.40;84.00;;;;;;5080162;28;20459;-72
2021/06/01 03:35:56;;;;;;;2.33;2.00;;;14.40;84.10;;;;;;5062535;28;20247;-73
2021/06/01 03:38:22;;;;;;;4.27;2.73;;;14.40;84.20;;;;;;5029943;28;20456;-73
2021/06/01 03:40:48;;;;;;;3.00;2.40;;;14.40;84.20;;;;;;5031781;28;20605;-73
2021/06/01 03:43:14;;;;;;;2.20;1.90;;;14.40;84.40;;;;;;5013698;28;20471;-73
2021/06/01 03:45:40;;;;;;;3.83;2.70;;;14.30;84.30;;;;;;5062977;28;20228;-73
2021/06/01 03:48:06;;;;;;;2.93;2.57;;;14.30;84.40;;;;;;5046462;28;20224;-72
2021/06/01 03:50:32;;;;;;;3.50;2.70;;;14.30;84.50;;;;;;5062914;28;20459;-73
2021/06/01 03:52:58;;;;;;;3.17;2.87;;;14.30;84.60;;;;;;5046634;28;20237;-73
2021/06/01 03:55:24;;;;;;;2.30;2.13;;;14.30;84.70;;;;;;5062753;28;20468;-73
2021/06/01 03:57:50;;;;;;;3.97;2.33;;;14.30;84.80;;;;;;5046661;28;20212;-73
2021/06/01 04:00:24;;;;;;;2.50;2.30;;;14.30;84.60;;;;;;5046011;28;20231;-73
2021/06/01 04:02:50;;;;;;;2.70;2.50;;;14.30;84.90;;;;;;5080065;28;20216;-73
2021/06/01 04:05:16;;;;;;;2.77;2.27;;;14.20;84.60;;;;;;5079064;28;20815;-73
2021/06/01 04:07:44;;;;;;;3.40;3.10;;;14.20;84.90;;;;;;5061382;28;20680;-73
2021/06/01 04:10:10;;;;;;;3.83;2.90;;;14.30;85.30;;;;;;5045526;28;20286;-72
2021/06/01 04:12:36;;;;;;;3.03;2.83;;;14.20;85.00;;;;;;5079623;28;20455;-73
2021/06/01 04:15:03;;;;;;;2.37;2.17;;;14.20;85.80;;;;;;5046362;28;20482;-73
2021/06/01 04:17:28;;;;;;;3.33;2.80;;;14.20;85.80;;;;;;5029297;28;20255;-73
2021/06/01 04:19:54;;;;;;;2.60;2.40;;;14.20;85.70;;;;;;5032348;28;20479;-73
2021/06/01 04:22:20;;;;;;;3.20;2.90;;;14.20;85.90;;;;;;5002523;28;20467;-73
2021/06/01 04:24:45;;;;;;;3.10;2.67;;;14.20;85.60;;;;;;5038816;28;20637;-73
2021/06/01 04:27:12;;;;;;;4.63;2.37;;;14.20;86.40;;;;;;5082344;28;20223;-73
2021/06/01 04:29:38;;;;;;;2.53;2.33;;;14.20;85.90;;;;;;5062656;28;20224;-73
2021/06/01 04:32:04;;;;;;;2.70;2.13;;;14.20;86.20;;;;;;5079330;28;20538;-73
2021/06/01 04:34:30;;;;;;;2.27;2.07;;;14.20;87.90;;;;;;5028328;28;20307;-73
2021/06/01 04:36:55;;;;;;;3.27;2.60;;;14.20;86.30;;;;;;5032316;28;20555;-73
2021/06/01 04:39:21;;;;;;;3.13;2.80;;;14.20;86.10;;;;;;5041020;28;20212;-73
2021/06/01 04:41:47;;;;;;;2.67;2.47;;;14.20;86.10;;;;;;5083183;28;20223;-73
2021/06/01 04:44:12;;;;;;;2.67;2.47;;;14.20;86.70;;;;;;5064494;28;20227;-73
2021/06/01 04:46:38;;;;;;;4.23;2.60;;;14.30;87.10;;;;;;5038616;28;20231;-73
2021/06/01 04:49:04;;;;;;;2.70;2.50;;;14.30;86.80;;;;;;5073477;28;20630;-73
2021/06/01 04:52:07;;;;;;;2.90;2.60;;;14.30;87.30;;;;;;5065029;28;20228;-73
2021/06/01 04:54:32;;;;;;;3.30;2.50;;;14.30;86.40;;;;;;5074556;28;20299;-73
2021/06/01 04:56:58;;;;;;;3.03;2.70;;;14.30;87.00;;;;;;5060743;28;20562;-73
2021/06/01 04:59:24;;;;;;;7.80;3.17;;;14.40;87.00;;;;;;5059491;28;20270;-73
2021/06/01 05:01:49;;;;;;;4.00;2.93;;;14.40;87.50;;;;;;5013827;28;20289;-73
2021/06/01 05:04:15;;;;;;;2.70;2.50;;;14.40;87.20;;;;;;5036347;28;20270;-73
2021/06/01 05:06:41;;;;;;;2.43;2.23;;;14.40;88.20;;;;;;5027391;28;20232;-73
2021/06/01 05:09:06;;;;;;;4.07;2.70;;;14.50;87.80;;;;;;5055042;28;20220;-73
2021/06/01 05:11:33;;;;;;;6.87;3.40;;;14.50;87.60;;;;;;5089624;28;20223;-73
2021/06/01 05:13:58;;;;;;;3.80;3.03;;;14.50;87.50;;;;;;5028943;28;20225;-73
2021/06/01 05:16:24;;;;;;;3.20;2.77;;;14.60;88.10;;;;;;5061542;28;20485;-73
2021/06/01 05:18:50;;;;;;;3.17;2.30;;;14.60;88.40;;;;;;5062325;28;20274;-73
2021/06/01 05:21:16;;;;;;;3.63;3.33;;;14.60;88.30;;;;;;5061995;28;20228;-72
2021/06/01 05:23:42;;;;;;;2.10;2.00;;;14.70;88.30;;;;;;5061048;28;20451;-72
2021/06/01 05:26:08;;;;;;;3.07;2.77;;;14.70;88.60;;;;;;5062049;28;20468;-72
2021/06/01 05:28:36;;;;;;;4.23;2.63;;;14.70;89.00;;;;;;5056752;28;20209;-73
2021/06/01 05:31:14;;;;;;;2.87;2.67;;;14.80;89.30;;;;;;5053558;28;20208;-72
2021/06/01 05:33:44;;;;;;;2.93;2.60;;;14.90;89.80;;;;;;5028185;28;21082;-72
2021/06/01 05:36:09;;;;;;;3.00;2.63;;;14.90;89.00;;;;;;5010389;28;20558;-72
2021/06/01 05:38:35;;;;;;;2.80;2.60;;;14.90;89.50;;;;;;5044140;28;20887;-72
2021/06/01 05:41:02;;;;;;;2.60;2.40;;;15.00;89.90;;;;;;5029451;28;20224;-72
2021/06/01 05:43:31;;;;;;;4.50;3.10;;;15.00;90.00;;;;;;5038459;28;20463;-73
2021/06/01 05:45:57;;;;;;;2.90;2.53;;;15.10;90.00;;;;;;5053767;28;20475;-72
2021/06/01 05:48:23;;;;;;;3.10;2.80;;;15.10;90.00;;;;;;5037578;28;20506;-72
2021/06/01 05:50:49;;;;;;;2.63;2.43;;;15.20;90.00;;;;;;5032331;28;20962;-71
2021/06/01 05:53:17;;;;;;;2.53;2.33;;;15.20;90.00;;;;;;5048172;28;20216;-72
2021/06/01 05:55:44;;;;;;;4.20;2.80;;;15.30;90.00;;;;;;5047460;28;20236;-72
2021/06/01 05:58:10;;;;;;;2.50;2.30;;;15.40;90.10;;;;;;5094311;28;20527;-72
2021/06/01 06:00:36;;;;;;;3.10;2.80;;;15.40;90.20;;;;;;5056955;28;20468;-72
2021/06/01 06:03:03;;;;;;;2.57;2.43;;;15.50;90.30;;;;;;5048566;28;20225;-72
2021/06/01 06:05:30;;;;;;;2.53;2.33;;;15.50;90.40;;;;;;5030324;28;20213;-72
2021/06/01 06:08:04;;;;;;;3.70;2.83;;;15.60;90.50;;;;;;5067473;28;20516;-72
2021/06/01 06:10:29;;;;;;;2.87;2.67;;;15.70;90.60;;;;;;5020172;28;20434;-72
2021/06/01 06:12:55;;;;;;;3.40;3.10;;;15.80;90.60;;;;;;5011992;28;20885;-72
2021/06/01 06:15:21;;;;;;;3.20;2.90;;;15.90;90.80;;;;;;5029842;28;20236;-72
2021/06/01 06:18:13;;;;;;;4.40;2.77;;;16.00;90.90;;;;;;5063467;28;20244;-73
2021/06/01 06:20:39;;;;;;;3.47;2.53;;;16.00;91.00;;;;;;5027192;28;20255;-72
2021/06/01 06:23:05;;;;;;;3.77;3.00;;;16.10;90.80;;;;;;5033710;28;20451;-73
2021/06/01 06:25:30;;;;;;;4.33;3.23;;;16.20;91.10;;;;;;5037052;28;20225;-73
2021/06/01 06:27:56;;;;;;;3.27;2.80;;;16.20;91.00;;;;;;5010307;28;20741;-72
2021/06/01 06:30:23;;;;;;;2.90;2.70;;;16.40;91.60;;;;;;5023302;28;20243;-72
2021/06/01 06:32:50;;;;;;;3.33;2.60;;;16.50;91.20;;;;;;5013556;28;20225;-72
2021/06/01 06:35:16;;;;;;;4.43;2.90;;;16.60;91.10;;;;;;5011396;28;20471;-72
2021/06/01 06:37:42;;;;;;;4.50;3.07;;;16.60;91.00;;;;;;5060596;28;20463;-72
2021/06/01 06:40:09;;;;;;;3.20;2.90;;;16.70;91.00;;;;;;4994781;28;20468;-73
2021/06/01 06:42:36;;;;;;;3.30;3.00;;;16.70;91.00;;;;;;5019306;28;20221;-72
2021/06/01 06:45:07;;;;;;;4.27;2.73;;;16.80;90.80;;;;;;5013455;28;20484;-72
2021/06/01 06:50:10;;;;;;;2.43;2.23;;;17.00;91.00;;;;;;4993589;28;20473;-72
2021/06/01 06:52:36;;;;;;;2.70;2.50;;;17.10;91.00;;;;;;5024502;28;20457;-72
2021/06/01 06:55:07;;;;;;;4.50;3.07;;;17.10;90.80;;;;;;5025095;28;20473;-72
2021/06/01 06:57:33;;;;;;;3.70;3.20;;;17.20;91.00;;;;;;5023233;28;20511;-72
2021/06/01 06:59:59;;;;;;;4.30;3.57;;;17.30;91.00;;;;;;5025264;28;20952;-73
2021/06/01 07:02:27;;;;;;;3.20;2.87;;;17.30;90.70;;;;;;5027355;28;20641;-72
2021/06/01 07:04:53;;;;;;;3.70;3.00;;;17.40;91.00;;;;;;5011459;28;20222;-72
2021/06/01 07:07:19;;;;;;;3.57;3.27;;;17.60;91.00;;;;;;5027925;28;20452;-73
2021/06/01 07:09:44;;;;;;;2.83;2.60;;;17.60;90.70;;;;;;5028255;28;20225;-73
2021/06/01 07:12:11;;;;;;;2.77;2.57;;;17.70;90.80;;;;;;4994165;28;20213;-72
2021/06/01 07:14:51;;;;;;;3.70;3.37;;;17.80;90.70;;;;;;5016351;28;20600;-72
2021/06/01 07:17:16;;;;;;;3.20;3.00;;;17.90;90.80;;;;;;5038824;28;21056;-72
2021/06/01 07:19:46;;;;;;;3.47;2.63;;;18.00;90.70;;;;;;5064010;28;20436;-73
2021/06/01 07:22:12;;;;;;;4.30;2.93;;;18.00;90.60;;;;;;5043674;28;20218;-74
2021/06/01 07:24:37;;;;;;;3.23;2.93;;;18.20;90.70;;;;;;5020758;28;20442;-75
2021/06/01 07:27:03;;;;;;;5.37;2.60;;;18.20;90.70;;;;;;5043737;28;20213;-75
2021/06/01 07:29:29;;;;;;;3.00;2.70;;;18.30;90.70;;;;;;5031641;28;20221;-75
2021/06/01 07:31:55;;;;;;;2.93;2.73;;;18.40;90.50;;;;;;5008587;28;20483;-74
2021/06/01 07:34:21;;;;;;;3.87;2.90;;;18.50;90.50;;;;;;5007066;28;20229;-74
2021/06/01 07:36:47;;;;;;;3.30;3.03;;;18.70;90.50;;;;;;5028889;28;20472;-74
2021/06/01 07:39:13;;;;;;;3.50;2.90;;;18.70;90.50;;;;;;5022921;28;20566;-74
2021/06/01 07:41:39;;;;;;;3.10;2.80;;;18.80;90.50;;;;;;4995576;28;20539;-74
2021/06/01 07:44:07;;;;;;;3.43;2.90;;;18.90;90.40;;;;;;5054718;28;20243;-74
2021/06/01 07:46:33;;;;;;;3.30;3.00;;;19.00;90.30;;;;;;5047015;28;20267;-72
2021/06/01 07:49:00;;;;;;;3.50;2.73;;;19.10;89.80;;;;;;5026859;28;20567;-73
2021/06/01 07:51:29;;;;;;;3.17;2.87;;;19.20;89.60;;;;;;5035236;28;20525;-73
2021/06/01 07:53:56;;;;;;;3.90;2.80;;;19.30;89.70;;;;;;5048895;28;20462;-72
2021/06/01 07:56:22;;;;;;;5.53;3.23;;;19.40;89.70;;;;;;5042654;28;20613;-72
2021/06/01 07:58:48;;;;;;;3.00;2.80;;;19.50;89.40;;;;;;5060982;28;20478;-75
2021/06/01 08:01:15;;;;;;;2.60;2.40;;;19.60;89.40;;;;;;5050733;28;20223;-75
2021/06/01 08:03:40;;;;;;;3.97;3.00;;;19.70;89.40;;;;;;5053895;28;20450;-74
2021/06/01 08:06:06;;;;;;;3.10;2.80;;;19.80;89.50;;;;;;5047108;28;20467;-75
2021/06/01 08:08:32;;;;;;;3.77;3.00;;;19.80;89.00;;;;;;5040632;28;20223;-75
2021/06/01 08:10:58;;;;;;;3.80;3.10;;;19.90;89.10;;;;;;5029958;28;20820;-74
2021/06/01 08:13:26;;;;;;;3.90;3.33;;;19.90;89.40;;;;;;5060125;28;20641;-75
2021/06/01 08:15:52;;;;;;;5.87;3.17;;;20.00;89.10;;;;;;5019619;28;20224;-75
2021/06/01 08:18:20;;;;;;;3.80;3.00;;;20.10;88.30;;;;;;5043619;28;20450;-75
2021/06/01 08:21:01;;;;;;;2.70;2.50;;;20.20;88.30;;;;;;5041373;28;20957;-75
2021/06/01 08:23:27;;;;;;;3.20;3.00;;;20.50;88.00;;;;;;5078560;28;20482;-75
2021/06/01 08:25:54;;;;;;;3.50;2.90;;;20.60;87.70;;;;;;5091766;28;20514;-75
2021/06/01 08:28:19;;;;;;;2.83;2.63;;;20.70;86.60;;;;;;5052722;28;20213;-75
2021/06/01 08:30:45;;;;;;;3.60;3.17;;;20.70;87.00;;;;;;5077572;28;20982;-74
2021/06/01 08:33:11;;;;;;;5.10;2.80;;;20.80;87.00;;;;;;5008552;28;20213;-75
2021/06/01 08:35:37;;;;;;;2.93;2.73;;;20.90;85.90;;;;;;5008057;28;20359;-75
2021/06/01 08:38:03;;;;;;;3.70;3.07;;;20.90;85.50;;;;;;5008004;28;20263;-75
2021/06/01 08:40:29;;;;;;;2.90;2.70;;;20.90;86.30;;;;;;5024272;28;20649;-74
2021/06/01 08:42:55;;;;;;;3.17;2.87;;;21.00;86.60;;;;;;5041723;28;20252;-75
2021/06/01 08:45:21;;;;;;;5.20;3.07;;;21.10;87.00;;;;;;5047955;28;20506;-75
2021/06/01 08:47:48;;;;;;;4.00;3.20;;;21.10;85.00;;;;;;5034546;28;20228;-75
2021/06/01 08:50:14;;;;;;;3.50;3.20;;;21.20;84.40;;;;;;5074474;28;20512;-74
2021/06/01 08:52:41;;;;;;;3.27;2.97;;;21.30;84.30;;;;;;5057021;28;20485;-75
2021/06/01 08:55:09;;;;;;;3.53;3.23;;;21.40;84.90;;;;;;5029416;28;20478;-75
2021/06/01 08:57:36;;;;;;;3.27;2.97;;;21.50;84.40;;;;;;5027959;28;20447;-75
2021/06/01 09:00:04;;;;;;;3.67;3.30;;;21.40;84.60;;;;;;5069060;28;20451;-75
2021/06/01 09:02:30;;;;;;;2.77;2.57;;;21.60;84.60;;;;;;5009139;28;20539;-75
2021/06/01 09:05:03;;;;;;;3.47;3.00;;;21.70;84.30;;;;;;5048315;28;20938;-75
2021/06/01 09:07:37;;;;;;;3.07;2.70;;;21.90;84.30;;;;;;5031141;28;20249;-75
2021/06/01 09:10:31;;;;;;;3.53;3.23;;;21.90;83.80;;;;;;5007134;28;20645;-75
2021/06/01 09:21:45;;;;;;;3.57;3.33;;;22.60;81.60;;;;;;5028610;28;20451;-75
2021/06/01 09:24:11;;;;;;;2.97;2.77;;;22.60;81.40;;;;;;5030315;28;20439;-75
2021/06/01 09:26:37;;;;;;;3.33;3.10;;;22.80;80.80;;;;;;5012143;28;20534;-75
2021/06/01 09:29:03;;;;;;;3.30;3.10;;;23.00;79.80;;;;;;5045918;28;20239;-75
2021/06/01 09:31:28;;;;;;;4.73;3.33;;;23.10;80.10;;;;;;5012953;28;20474;-74
2021/06/01 09:33:54;;;;;;;3.47;3.27;;;23.20;80.30;;;;;;4999882;28;20631;-74
2021/06/01 09:36:23;;;;;;;2.97;2.77;;;23.40;80.90;;;;;;5014089;28;20221;-75
2021/06/01 09:38:49;;;;;;;3.33;3.13;;;23.40;79.40;;;;;;5060439;28;20226;-75
2021/06/01 09:41:23;;;;;;;3.00;2.80;;;23.30;79.10;;;;;;5044673;28;20864;-75
2021/06/01 09:44:06;;;;;;;3.10;2.90;;;23.30;78.40;;;;;;5061647;28;20746;-75
2021/06/01 09:46:45;;;;;;;3.37;3.07;;;23.30;79.30;;;;;;5028597;28;20463;-75
2021/06/01 09:49:17;;;;;;;3.00;2.80;;;23.60;75.00;;;;;;5025716;28;20542;-75
2021/06/01 09:51:53;;;;;;;2.93;2.73;;;23.80;73.90;;;;;;5048089;28;20467;-75
2021/06/01 09:54:41;;;;;;;2.90;2.70;;;24.00;73.70;;;;;;5062701;28;20450;-75
2021/06/01 09:57:16;;;;;;;3.90;3.07;;;23.90;74.00;;;;;;5034288;28;20470;-75
2021/06/01 09:59:42;;;;;;;3.30;3.07;;;23.90;73.50;;;;;;5049323;28;20487;-75
2021/06/01 10:02:31;;;;;;;3.23;2.93;;;23.80;72.50;;;;;;5064501;28;20515;-75
2021/06/01 10:05:14;;;;;;;2.90;2.80;;;23.80;72.70;;;;;;5037551;28;20676;-75
2021/06/01 10:07:41;;;;;;;3.13;2.93;;;23.70;72.60;;;;;;5046394;28;20973;-75
2021/06/01 10:10:16;;;;;;;2.40;2.30;;;23.90;72.70;;;;;;5064450;28;20461;-75
2021/06/01 10:12:44;;;;;;;3.27;2.97;;;24.00;71.50;;;;;;5058338;28;20447;-75
2021/06/01 10:15:11;;;;;;;3.70;3.40;;;23.90;71.60;;;;;;5043608;28;20458;-75
2021/06/01 10:17:38;;;;;;;3.60;3.30;;;23.80;71.50;;;;;;5058915;28;20493;-75
2021/06/01 10:20:04;;;;;;;3.40;3.10;;;23.80;71.20;;;;;;5060058;28;20450;-75
2021/06/01 10:22:30;;;;;;;3.00;2.80;;;23.70;70.50;;;;;;5042729;28;20443;-75
2021/06/01 10:24:56;;;;;;;3.03;2.83;;;23.80;70.30;;;;;;5011074;28;20917;-75
2021/06/01 10:27:23;;;;;;;3.13;2.87;;;23.80;70.80;;;;;;5045674;28;20827;-75
2021/06/01 10:29:48;;;;;;;2.90;2.60;;;23.90;70.20;;;;;;5062187;28;20458;-75
2021/06/01 10:32:15;;;;;;;3.37;3.17;;;24.00;71.20;;;;;;5061123;28;20530;-75
2021/06/01 10:34:42;;;;;;;3.27;2.97;;;24.00;70.80;;;;;;5089256;28;21610;-75
2021/06/01 10:42:47;;;;;;;3.10;2.90;;;24.30;70.60;;;;;;5031291;28;20482;-76
2021/06/01 10:50:42;;;;;;;4.70;3.17;;;24.60;71.60;;;;;;5065007;28;20462;-75
2021/06/01 10:53:18;;;;;;;3.20;3.00;;;24.70;68.60;;;;;;5007084;28;20467;-75
2021/06/01 10:55:50;;;;;;;3.30;3.00;;;24.80;69.60;;;;;;5081930;28;20692;-75
2021/06/01 10:58:20;;;;;;;2.97;2.70;;;24.80;69.20;;;;;;5068000;28;20948;-75
2021/06/01 11:03:12;;;;;;;3.00;2.70;;;24.50;67.60;;;;;;5069295;28;20985;-75
2021/06/01 11:05:59;;;;;;;4.03;3.63;;;24.40;67.70;;;;;;5054804;28;20223;-75
2021/06/01 11:08:45;;;;;;;3.57;3.00;;;24.30;68.20;;;;;;5055195;28;20495;-75
2021/06/01 11:11:22;;;;;;;3.30;3.10;;;24.40;67.80;;;;;;5017596;28;20455;-75
2021/06/01 11:13:49;;;;;;;3.63;3.33;;;24.50;67.00;;;;;;5060724;28;20451;-75
2021/06/01 11:16:15;;;;;;;3.10;2.90;;;24.60;67.20;;;;;;5061372;28;20463;-75
2021/06/01 11:18:53;;;;;;;2.77;2.57;;;24.70;67.40;;;;;;4994747;28;20514;-75
2021/06/01 11:35:40;;;;;;;2.70;2.50;;;25.00;66.00;;;;;;5009478;28;20467;-75
2021/06/01 11:38:13;;;;;;;3.30;3.10;;;25.10;66.60;;;;;;5028433;28;20545;-75
2021/06/01 11:43:14;;;;;;;8.77;4.07;;;24.90;65.40;;;;;;5010279;28;20874;-75
2021/06/01 11:46:04;;;;;;;12.27;3.80;;;24.90;65.30;;;;;;5019664;28;20550;-75
2021/06/01 11:51:19;;;;;;;5.30;3.33;;;24.90;65.00;;;;;;5062805;28;20475;-75
2021/06/01 11:53:55;;;;;;;3.83;3.07;;;24.80;64.90;;;;;;5060717;28;20466;-75
2021/06/01 12:20:50;;;;;;;2.80;2.60;;;25.40;63.40;;;;;;5046114;28;20454;-75
2021/06/01 12:23:34;;;;;;;3.63;3.33;;;25.20;62.30;;;;;;5046166;28;20810;-75
2021/06/01 12:31:54;;;;;;;3.57;3.37;;;25.00;64.20;;;;;;5062784;28;20545;-75
2021/06/01 12:34:33;;;;;;;4.00;3.50;;;24.90;63.30;;;;;;5021152;28;20447;-75
2021/06/01 12:41:41;;;;;;;3.47;3.17;;;24.90;64.00;;;;;;5046042;28;20469;-75
2021/06/01 12:43:05;;;;;;;3.23;2.57;;;24.90;63.00;;;;;;5062298;28;20574;-75
2021/06/01 13:05:33;;;;;;;3.07;2.80;;;25.30;63.50;;;;;;5064793;28;20470;-75
2021/06/01 13:19:38;;;;;;;2.60;2.40;;;25.30;64.70;;;;;;5065228;28;20511;-75
2021/06/01 13:22:42;;;;;;;3.20;2.93;;;25.30;64.60;;;;;;5004634;28;20529;-75
2021/06/01 13:55:57;;;;;;;3.50;3.20;;;25.20;64.20;;;;;;5026494;28;20477;-75
2021/06/01 14:01:06;;;;;;;3.67;3.37;;;25.20;64.30;;;;;;5042333;28;20806;-75
2021/06/01 14:20:29;;;;;;;3.40;3.20;;;25.50;61.50;;;;;;5020809;28;20451;-75
2021/06/01 15:49:46;;;;;;;3.10;2.90;;;25.30;61.40;;;;;;5067672;28;20473;-75
2021/06/01 16:14:55;;;;;;;3.20;3.00;;;25.30;60.50;;;;;;5029343;28;20446;-75
2021/06/01 16:41:57;;;;;;;2.73;2.53;;;25.20;59.90;;;;;;5026979;28;20541;-76
2021/06/01 17:11:15;;;;;;;3.83;3.53;;;25.00;59.50;;;;;;5000265;28;20471;-76
2021/06/01 17:13:52;;;;;;;4.00;3.40;;;25.10;59.70;;;;;;5040283;28;20455;-75
2021/06/01 17:22:09;;;;;;;3.17;2.80;;;25.00;59.70;;;;;;5034403;28;20971;-74
2021/06/01 17:36:01;;;;;;;3.23;2.93;;;24.80;59.40;;;;;;5034044;28;20471;-74
2021/06/01 17:38:27;;;;;;;3.07;2.87;;;24.80;59.30;;;;;;5046182;28;20815;-74
2021/06/01 17:40:57;;;;;;;3.40;3.10;;;24.80;59.90;;;;;;5059721;28;20887;-75
2021/06/01 17:43:31;;;;;;;2.60;2.40;;;24.80;59.80;;;;;;5021705;28;20473;-76
2021/06/01 17:45:58;;;;;;;2.50;2.40;;;24.80;59.90;;;;;;5009477;28;20474;-76
2021/06/01 17:50:55;;;;;;;2.80;2.60;;;24.80;59.50;;;;;;5011032;28;20542;-76
2021/06/01 17:53:23;;;;;;;2.60;2.43;;;24.70;58.90;;;;;;5015850;28;20810;-76
2021/06/01 17:55:52;;;;;;;3.40;2.60;;;24.60;59.20;;;;;;5044077;28;20467;-76
2021/06/01 17:58:21;;;;;;;3.10;2.90;;;24.60;59.70;;;;;;5037662;28;20520;-74
2021/06/01 18:00:47;;;;;;;3.07;2.60;;;24.60;59.80;;;;;;5042985;28;20452;-74
2021/06/01 18:03:17;;;;;;;15.80;3.57;;;24.60;60.80;;;;;;5014430;28;20466;-75
2021/06/01 18:05:44;;;;;;;5.57;2.97;;;24.60;60.80;;;;;;5038549;28;20475;-76
2021/06/01 18:08:19;;;;;;;5.40;3.73;;;24.60;60.50;;;;;;5043148;28;20962;-76
2021/06/01 18:11:36;;;;;;;34.33;5.70;;;24.60;61.40;;;;;;5057011;28;20551;-76
2021/06/01 18:41:39;;;;;;;5.17;3.27;;;24.20;62.80;;;;;;5010939;28;21117;-74
2021/06/01 19:25:26;;;;;;;3.63;3.30;;;23.80;67.20;;;;;;5057539;28;20955;-74
2021/06/01 19:50:08;;;;;;;5.03;3.20;;;23.20;69.90;;;;;;5044158;28;20451;-74
2021/06/01 19:52:34;;;;;;;3.53;3.20;;;23.20;69.90;;;;;;5042173;28;20476;-74
2021/06/01 19:55:03;;;;;;;4.70;3.60;;;23.10;69.50;;;;;;5048346;28;21071;-74
2021/06/01 19:57:29;;;;;;;3.33;3.03;;;23.10;69.50;;;;;;5020303;28;20286;-74
2021/06/01 19:59:56;;;;;;;3.23;2.93;;;23.10;69.50;;;;;;5076765;28;20885;-74
2021/06/01 20:02:24;;;;;;;3.03;2.80;;;23.00;70.20;;;;;;5043864;28;20327;-73
2021/06/01 20:04:58;;;;;;;3.87;3.23;;;23.00;69.40;;;;;;5066539;28;21049;-74
2021/06/01 20:07:26;;;;;;;3.20;3.00;;;22.90;69.90;;;;;;5067270;28;20486;-74
2021/06/01 20:09:51;;;;;;;3.70;3.30;;;22.80;69.70;;;;;;5075649;28;20474;-74